createdAt,value
2022-07-25T00:00:03.463Z,95490.38
2022-07-25T00:02:33.281Z,95482.81
2022-07-25T00:05:03.113Z,95480.78
2022-07-25T00:07:33.016Z,95402.81
2022-07-25T00:10:02.800Z,95436.16
2022-07-25T00:12:31.358Z,95437.16
2022-07-25T00:15:00.151Z,95431.59
2022-07-25T00:17:28.601Z,95435.50
2022-07-25T00:19:57.060Z,95244.94
2022-07-25T00:22:25.569Z,95440.94
2022-07-25T00:24:53.989Z,95221.72
2022-07-25T00:27:23.770Z,95429.72
2022-07-25T00:29:52.196Z,95434.25
2022-07-25T00:32:20.684Z,95427.72
2022-07-25T00:34:49.031Z,95418.81
2022-07-25T00:37:17.442Z,95422.28
2022-07-25T00:39:46.622Z,95412.09
2022-07-25T00:42:16.435Z,95415.50
2022-07-25T00:44:46.228Z,95414.06
2022-07-25T00:47:14.635Z,95406.22
2022-07-25T00:49:43.308Z,95403.47
2022-07-25T00:52:12.874Z,95389.16
2022-07-25T00:54:41.282Z,95393.34
2022-07-25T00:57:09.666Z,95402.44
2022-07-25T00:59:38.300Z,95391.66
2022-07-25T01:02:08.960Z,95397.69
2022-07-25T01:04:37.455Z,95395.63
2022-07-25T01:07:06.676Z,95386.28
2022-07-25T01:09:35.472Z,95389.16
2022-07-25T01:12:03.950Z,95380.03
2022-07-25T01:14:33.955Z,95371.69
2022-07-25T01:17:02.312Z,95364.97
2022-07-25T01:19:32.090Z,95367.75
2022-07-25T01:22:02.183Z,95370.38
2022-07-25T01:24:31.012Z,95369.56
2022-07-25T01:26:59.399Z,95380.13
2022-07-25T01:29:27.873Z,95230.34
2022-07-25T01:31:56.216Z,95376.91
2022-07-25T01:34:24.577Z,95368.34
2022-07-25T01:36:53.054Z,95379.50
2022-07-25T01:39:22.857Z,95388.75
2022-07-25T01:41:51.309Z,95382.34
2022-07-25T01:44:19.649Z,95375.84
2022-07-25T01:46:48.173Z,95364.03
2022-07-25T01:49:16.642Z,95353.91
2022-07-25T01:51:45.027Z,95352.56
2022-07-25T01:54:13.337Z,95341.78
2022-07-25T01:56:47.634Z,95346.25
2022-07-25T01:59:16.968Z,95347.41
2022-07-25T02:01:45.491Z,95341.78
2022-07-25T02:04:14.078Z,95338.28
2022-07-25T02:06:42.732Z,95345.81
2022-07-25T02:09:11.676Z,95334.25
2022-07-25T02:11:40.050Z,95343.63
2022-07-25T02:14:09.985Z,95350.25
2022-07-25T02:16:38.460Z,95358.28
2022-07-25T02:19:06.956Z,95360.91
2022-07-25T02:21:35.680Z,95360.78
2022-07-25T02:24:04.720Z,95341.34
2022-07-25T02:26:33.389Z,95352.78
2022-07-25T02:29:01.814Z,95352.03
2022-07-25T02:31:31.666Z,95337.28
2022-07-25T02:34:00.018Z,95258.63
2022-07-25T02:36:28.459Z,95369.66
2022-07-25T02:38:56.823Z,95364.47
2022-07-25T02:41:25.225Z,95358.84
2022-07-25T02:43:53.536Z,95362.00
2022-07-25T02:46:22.780Z,95363.09
2022-07-25T02:48:52.783Z,95366.06
2022-07-25T02:51:21.214Z,95355.72
2022-07-25T02:53:58.557Z,95366.72
2022-07-25T02:56:29.778Z,95372.13
2022-07-25T02:58:58.788Z,95326.13
2022-07-25T03:01:27.293Z,95367.88
2022-07-25T03:03:57.564Z,95366.28
2022-07-25T03:06:26.016Z,95282.78
2022-07-25T03:08:54.324Z,95368.97
2022-07-25T03:11:22.877Z,95369.41
2022-07-25T03:13:51.217Z,95372.88
2022-07-25T03:16:19.718Z,95374.88
2022-07-25T03:18:48.265Z,95379.75
2022-07-25T03:21:18.159Z,95368.72
2022-07-25T03:23:51.981Z,95369.88
2022-07-25T03:26:22.116Z,95368.94
2022-07-25T03:28:50.483Z,95373.22
2022-07-25T03:31:19.988Z,95363.19
2022-07-25T03:33:48.439Z,95366.13
2022-07-25T03:36:20.703Z,95364.88
2022-07-25T03:38:49.100Z,95362.00
2022-07-25T03:41:17.496Z,95372.88
2022-07-25T03:43:48.114Z,95369.16
2022-07-25T03:46:16.893Z,95367.00
2022-07-25T03:48:47.935Z,95357.88
2022-07-25T03:51:20.325Z,95361.44
2022-07-25T03:54:08.142Z,95345.31
2022-07-25T03:56:43.646Z,95353.84
2022-07-25T03:59:13.897Z,95355.03
2022-07-25T04:01:43.183Z,95363.50
2022-07-25T04:04:12.104Z,95241.09
2022-07-25T04:06:42.285Z,95274.00
2022-07-25T04:09:11.937Z,95355.69
2022-07-25T04:11:40.884Z,95350.28
2022-07-25T04:14:09.721Z,95357.06
2022-07-25T04:16:38.458Z,95357.41
2022-07-25T04:19:08.687Z,95359.81
2022-07-25T04:21:37.217Z,95339.28
2022-07-25T04:24:07.688Z,95359.28
2022-07-25T04:26:36.395Z,95370.81
2022-07-25T04:29:04.931Z,95367.84
2022-07-25T04:31:33.417Z,95371.13
2022-07-25T04:34:01.833Z,95373.88
2022-07-25T04:36:30.270Z,95368.44
2022-07-25T04:38:58.649Z,95367.28
2022-07-25T04:41:28.428Z,95362.69
2022-07-25T04:43:57.004Z,95371.59
2022-07-25T04:46:25.425Z,95367.59
2022-07-25T04:48:54.160Z,95367.31
2022-07-25T04:51:22.771Z,95358.06
2022-07-25T04:53:51.233Z,95369.09
2022-07-25T04:56:19.653Z,95361.13
2022-07-25T04:58:49.510Z,95362.91
2022-07-25T05:01:18.133Z,95357.28
2022-07-25T05:03:50.057Z,95362.13
2022-07-25T05:06:19.114Z,95361.41
2022-07-25T05:08:47.545Z,95362.22
2022-07-25T05:11:15.948Z,95362.69
2022-07-25T05:13:44.758Z,95369.56
2022-07-25T05:16:14.639Z,95374.91
2022-07-25T05:18:43.146Z,95380.91
2022-07-25T05:21:12.703Z,95367.50
2022-07-25T05:23:41.259Z,95352.66
2022-07-25T05:26:09.662Z,95344.31
2022-07-25T05:28:38.077Z,95369.72
2022-07-25T05:31:06.558Z,95362.25
2022-07-25T05:33:36.853Z,95361.81
2022-07-25T05:36:06.179Z,95350.94
2022-07-25T05:38:34.889Z,95354.97
2022-07-25T05:41:03.713Z,95328.97
2022-07-25T05:43:32.285Z,95302.78
2022-07-25T05:46:04.142Z,95357.63
2022-07-25T05:48:32.774Z,95364.28
2022-07-25T05:51:02.909Z,95356.03
2022-07-25T05:53:31.393Z,95193.66
2022-07-25T05:55:59.958Z,95354.44
2022-07-25T05:58:30.019Z,95330.44
2022-07-25T06:00:59.492Z,95337.06
2022-07-25T06:03:28.005Z,95339.34
2022-07-25T06:05:57.590Z,95264.81
2022-07-25T06:08:28.880Z,95328.94
2022-07-25T06:10:57.874Z,95338.56
2022-07-25T06:13:26.250Z,95334.47
2022-07-25T06:15:56.721Z,95337.97
2022-07-25T06:18:25.904Z,95338.44
2022-07-25T06:20:54.565Z,95307.38
2022-07-25T06:23:23.008Z,95320.56
2022-07-25T06:25:57.411Z,95326.41
2022-07-25T06:28:25.815Z,95324.72
2022-07-25T06:30:54.259Z,95312.41
2022-07-25T06:33:22.897Z,95327.09
2022-07-25T06:35:51.223Z,95299.41
2022-07-25T06:38:19.714Z,95327.84
2022-07-25T06:40:48.169Z,95282.13
2022-07-25T06:43:17.876Z,95319.50
2022-07-25T06:45:47.682Z,95296.66
2022-07-25T06:48:16.180Z,95320.34
2022-07-25T06:50:45.022Z,95282.38
2022-07-25T06:53:13.457Z,95314.69
2022-07-25T06:55:42.051Z,95316.59
2022-07-25T06:58:10.471Z,95281.00
2022-07-25T07:00:40.762Z,95267.59
2022-07-25T07:03:09.442Z,95262.03
2022-07-25T07:05:38.199Z,95311.06
2022-07-25T07:08:07.302Z,95319.03
2022-07-25T07:10:35.748Z,95255.59
2022-07-25T07:13:07.718Z,95228.69
2022-07-25T07:15:36.383Z,95314.91
2022-07-25T07:18:08.142Z,95318.31
2022-07-25T07:20:36.710Z,95314.56
2022-07-25T07:23:05.693Z,95316.09
2022-07-25T07:25:34.668Z,95273.47
2022-07-25T07:28:03.417Z,95312.28
2022-07-25T07:30:58.657Z,95228.91
2022-07-25T07:33:22.497Z,95315.19
2022-07-25T07:35:50.939Z,95315.00
2022-07-25T07:38:19.372Z,95298.44
2022-07-25T07:40:47.706Z,95288.63
2022-07-25T07:43:16.233Z,95304.94
2022-07-25T07:45:45.119Z,95249.56
2022-07-25T07:48:15.985Z,95300.41
2022-07-25T07:50:45.934Z,95300.75
2022-07-25T07:53:14.327Z,95298.56
2022-07-25T07:55:44.596Z,95303.66
2022-07-25T07:58:15.857Z,95299.72
2022-07-25T08:00:45.205Z,95296.19
2022-07-25T08:03:13.867Z,95294.16
2022-07-25T08:05:43.691Z,95299.19
2022-07-25T08:08:15.533Z,95305.22
2022-07-25T08:10:45.403Z,95298.53
2022-07-25T08:13:15.421Z,95272.00
2022-07-25T08:15:44.700Z,95287.56
2022-07-25T08:18:17.679Z,95291.09
2022-07-25T08:20:46.815Z,95283.22
2022-07-25T08:23:16.881Z,95278.28
2022-07-25T08:25:47.058Z,95281.34
2022-07-25T08:28:15.663Z,95275.19
2022-07-25T08:30:44.903Z,95269.53
2022-07-25T08:33:16.339Z,95260.56
2022-07-25T08:35:48.693Z,95273.78
2022-07-25T08:38:18.441Z,95274.41
2022-07-25T08:40:47.016Z,95273.38
2022-07-25T08:43:17.080Z,95260.94
2022-07-25T08:45:47.631Z,95221.88
2022-07-25T08:48:18.351Z,95256.78
2022-07-25T08:50:48.071Z,95263.22
2022-07-25T08:53:36.130Z,95256.56
2022-07-25T08:56:20.484Z,95244.78
2022-07-25T08:58:49.834Z,95250.38
2022-07-25T09:01:18.400Z,95249.09
2022-07-25T09:03:46.783Z,95241.97
2022-07-25T09:06:17.577Z,95237.69
2022-07-25T09:08:54.827Z,95238.56
2022-07-25T09:11:31.967Z,95241.13
2022-07-25T09:14:02.902Z,95239.38
2022-07-25T09:16:34.641Z,95217.25
2022-07-25T09:19:14.521Z,95231.91
2022-07-25T09:21:45.603Z,95230.13
2022-07-25T09:24:18.342Z,95226.44
2022-07-25T09:26:49.470Z,95214.88
2022-07-25T09:29:22.986Z,95220.16
2022-07-25T09:31:52.368Z,95220.56
2022-07-25T09:34:38.058Z,95222.28
2022-07-25T09:37:08.255Z,95216.84
2022-07-25T09:39:46.308Z,95215.16
2022-07-25T09:42:20.696Z,95212.94
2022-07-25T09:45:06.775Z,95216.47
2022-07-25T09:47:38.602Z,95213.56
2022-07-25T09:50:08.704Z,95188.84
2022-07-25T09:52:38.212Z,95208.34
2022-07-25T09:55:10.379Z,95211.69
2022-07-25T09:57:38.866Z,95205.25
2022-07-25T10:00:09.646Z,95204.88
2022-07-25T10:02:48.130Z,95197.72
2022-07-25T10:05:20.802Z,95194.38
2022-07-25T10:07:51.869Z,95190.34
2022-07-25T10:10:27.861Z,95122.13
2022-07-25T10:13:09.748Z,95100.41
2022-07-25T10:15:47.513Z,95178.97
2022-07-25T10:18:17.281Z,95179.78
2022-07-25T10:20:46.662Z,95134.69
2022-07-25T10:23:23.296Z,95168.41
2022-07-25T10:26:09.652Z,95168.06
2022-07-25T10:28:40.850Z,95167.47
2022-07-25T10:31:25.030Z,95130.69
2022-07-25T10:33:55.657Z,95157.09
2022-07-25T10:36:25.830Z,95159.34
2022-07-25T10:38:58.597Z,95167.19
2022-07-25T10:41:29.998Z,95152.88
2022-07-25T10:44:02.219Z,95141.69
2022-07-25T10:46:32.753Z,95142.47
2022-07-25T10:49:03.787Z,95127.50
2022-07-25T10:51:39.459Z,95137.03
2022-07-25T10:54:17.098Z,95126.53
2022-07-25T10:56:58.671Z,95126.53
2022-07-25T10:59:28.721Z,95128.09
2022-07-25T11:01:59.579Z,95115.34
2022-07-25T11:04:27.981Z,95117.91
2022-07-25T11:06:56.578Z,95124.09
2022-07-25T11:09:27.825Z,95109.16
2022-07-25T11:11:59.573Z,95115.69
2022-07-25T11:14:32.940Z,95111.66
2022-07-25T11:17:14.671Z,95102.44
2022-07-25T11:19:43.958Z,95104.09
2022-07-25T11:22:13.357Z,95095.75
2022-07-25T11:24:44.698Z,95094.84
2022-07-25T11:27:21.970Z,95094.03
2022-07-25T11:29:50.624Z,95084.31
2022-07-25T11:32:19.267Z,95089.50
2022-07-25T11:34:50.592Z,95077.22
2022-07-25T11:37:19.386Z,95069.81
2022-07-25T11:39:49.153Z,95063.13
2022-07-25T11:42:20.942Z,95069.00
2022-07-25T11:44:50.787Z,95057.53
2022-07-25T11:47:28.571Z,95062.41
2022-07-25T11:49:59.228Z,95048.75
2022-07-25T11:52:30.063Z,95050.53
2022-07-25T11:55:00.420Z,95050.03
2022-07-25T11:57:32.776Z,95046.38
2022-07-25T12:00:02.811Z,95048.19
2022-07-25T12:02:33.340Z,95047.06
2022-07-25T12:05:04.089Z,95050.38
2022-07-25T12:07:40.161Z,95042.97
2022-07-25T12:10:11.436Z,95036.28
2022-07-25T12:12:46.058Z,95041.03
2022-07-25T12:15:15.346Z,95044.00
2022-07-25T12:17:44.679Z,95035.25
2022-07-25T12:20:17.146Z,95036.50
2022-07-25T12:22:46.220Z,95034.50
2022-07-25T12:25:15.310Z,95038.56
2022-07-25T12:27:45.624Z,95033.00
2022-07-25T12:30:15.185Z,95034.00
2022-07-25T12:32:44.096Z,95025.03
2022-07-25T12:35:15.273Z,95017.75
2022-07-25T12:37:44.471Z,95015.75
2022-07-25T12:40:15.116Z,94953.81
2022-07-25T12:42:45.776Z,95007.59
2022-07-25T12:45:15.683Z,95012.94
2022-07-25T12:47:45.297Z,95005.69
2022-07-25T12:50:14.213Z,95002.84
2022-07-25T12:52:43.357Z,95003.56
2022-07-25T12:55:14.736Z,94996.97
2022-07-25T12:57:45.197Z,94997.81
2022-07-25T13:00:18.551Z,94991.53
2022-07-25T13:02:47.092Z,94997.72
2022-07-25T13:05:15.844Z,94996.88
2022-07-25T13:07:44.407Z,94985.72
2022-07-25T13:10:13.060Z,94991.06
2022-07-25T13:12:41.446Z,94963.66
2022-07-25T13:15:12.011Z,94985.91
2022-07-25T13:17:41.397Z,94981.97
2022-07-25T13:20:11.239Z,94980.72
2022-07-25T13:22:39.925Z,94973.56
2022-07-25T13:25:09.141Z,94969.66
2022-07-25T13:27:39.331Z,94964.56
2022-07-25T13:30:11.797Z,94962.41
2022-07-25T13:32:40.145Z,94967.88
2022-07-25T13:35:09.291Z,94950.66
2022-07-25T13:37:37.660Z,94930.66
2022-07-25T13:40:07.305Z,94965.09
2022-07-25T13:42:35.725Z,94963.97
2022-07-25T13:45:04.278Z,94964.25
2022-07-25T13:47:35.945Z,94954.78
2022-07-25T13:50:04.673Z,94963.53
2022-07-25T13:52:33.147Z,94957.69
2022-07-25T13:55:01.529Z,94964.53
2022-07-25T13:57:30.003Z,94960.53
2022-07-25T13:59:58.666Z,94951.28
2022-07-25T14:02:27.223Z,94933.28
2022-07-25T14:05:00.852Z,94948.88
2022-07-25T14:07:32.038Z,94947.03
2022-07-25T14:10:00.444Z,94942.56
2022-07-25T14:12:28.922Z,94910.81
2022-07-25T14:14:57.297Z,94907.63
2022-07-25T14:17:29.810Z,94942.69
2022-07-25T14:20:00.311Z,94940.75
2022-07-25T14:22:28.787Z,94938.63
2022-07-25T14:24:57.205Z,94938.88
2022-07-25T14:27:25.966Z,94936.69
2022-07-25T14:29:55.172Z,94932.53
2022-07-25T14:32:23.635Z,94941.53
2022-07-25T14:34:52.705Z,94930.19
2022-07-25T14:37:23.667Z,94927.13
2022-07-25T14:39:52.357Z,94928.00
2022-07-25T14:42:20.737Z,94929.41
2022-07-25T14:44:49.136Z,94923.69
2022-07-25T14:47:17.637Z,94918.19
2022-07-25T14:49:46.037Z,94915.31
2022-07-25T14:52:14.979Z,94927.69
2022-07-25T14:54:44.685Z,94914.09
2022-07-25T14:57:13.064Z,94920.66
2022-07-25T14:59:41.482Z,94706.78
2022-07-25T15:02:11.168Z,94928.94
2022-07-25T15:04:39.728Z,94919.38
2022-07-25T15:07:08.508Z,94914.25
2022-07-25T15:09:37.029Z,94907.47
2022-07-25T15:12:07.641Z,94909.00
2022-07-25T15:14:36.096Z,94906.88
2022-07-25T15:17:04.549Z,94906.63
2022-07-25T15:19:33.034Z,94903.94
2022-07-25T15:22:01.482Z,94905.91
2022-07-25T15:24:29.885Z,94904.38
2022-07-25T15:26:58.789Z,94890.13
2022-07-25T15:29:30.577Z,94900.75
2022-07-25T15:31:59.007Z,94887.16
2022-07-25T15:34:27.468Z,94884.25
2022-07-25T15:36:56.328Z,94896.00
2022-07-25T15:39:24.838Z,94891.56
2022-07-25T15:41:53.301Z,94902.88
2022-07-25T15:44:21.635Z,94849.00
2022-07-25T15:46:51.555Z,94896.34
2022-07-25T15:49:22.182Z,94891.44
2022-07-25T15:51:50.944Z,94886.22
2022-07-25T15:54:19.361Z,94888.25
2022-07-25T15:56:47.915Z,94890.25
2022-07-25T15:59:16.439Z,94895.69
2022-07-25T16:01:44.953Z,94890.06
2022-07-25T16:04:14.931Z,94854.53
2022-07-25T16:06:43.548Z,94882.31
2022-07-25T16:09:12.544Z,94901.25
2022-07-25T16:11:41.034Z,94898.78
2022-07-25T16:14:10.120Z,94894.78
2022-07-25T16:16:38.701Z,94895.91
2022-07-25T16:19:09.533Z,94894.56
2022-07-25T16:21:40.107Z,94896.28
2022-07-25T16:24:11.098Z,94896.75
2022-07-25T16:26:39.613Z,94894.44
2022-07-25T16:29:08.258Z,94900.34
2022-07-25T16:31:37.070Z,94900.09
2022-07-25T16:34:05.787Z,94901.44
2022-07-25T16:36:34.107Z,94903.38
2022-07-25T16:39:04.238Z,94905.19
2022-07-25T16:41:32.865Z,94907.69
2022-07-25T16:44:01.125Z,94895.69
2022-07-25T16:46:29.869Z,94906.94
2022-07-25T16:48:58.353Z,94902.34
2022-07-25T16:51:26.712Z,94904.31
2022-07-25T16:53:55.485Z,94886.88
2022-07-25T16:56:26.626Z,94912.19
2022-07-25T16:58:55.152Z,94919.00
2022-07-25T17:01:25.033Z,94918.63
2022-07-25T17:03:53.608Z,94925.28
2022-07-25T17:06:21.979Z,94935.88
2022-07-25T17:08:50.408Z,94932.66
2022-07-25T17:11:19.149Z,94944.97
2022-07-25T17:13:48.896Z,94941.00
2022-07-25T17:16:17.448Z,94944.69
2022-07-25T17:18:46.682Z,94948.44
2022-07-25T17:21:16.897Z,94951.56
2022-07-25T17:23:45.409Z,94953.25
2022-07-25T17:26:13.862Z,94950.22
2022-07-25T17:28:42.271Z,94959.25
2022-07-25T17:31:12.233Z,94956.13
2022-07-25T17:33:40.697Z,94954.34
2022-07-25T17:36:09.669Z,94966.03
2022-07-25T17:38:38.711Z,94963.63
2022-07-25T17:41:07.700Z,94974.50
2022-07-25T17:43:36.055Z,94976.84
2022-07-25T17:46:04.513Z,94981.09
2022-07-25T17:48:34.484Z,94983.84
2022-07-25T17:51:02.995Z,94992.44
2022-07-25T17:53:31.377Z,94997.53
2022-07-25T17:55:59.860Z,95001.88
2022-07-25T17:58:28.319Z,95006.94
2022-07-25T18:01:00.998Z,95002.66
2022-07-25T18:03:30.040Z,95012.81
2022-07-25T18:06:00.232Z,95017.84
2022-07-25T18:08:30.690Z,95021.75
2022-07-25T18:10:59.151Z,95010.69
2022-07-25T18:13:27.803Z,95027.44
2022-07-25T18:15:56.229Z,95025.38
2022-07-25T18:18:24.782Z,95028.78
2022-07-25T18:20:53.103Z,95019.34
2022-07-25T18:23:24.303Z,95038.50
2022-07-25T18:25:54.874Z,95043.88
2022-07-25T18:28:25.008Z,95047.19
2022-07-25T18:30:55.145Z,95045.38
2022-07-25T18:33:23.542Z,95045.16
2022-07-25T18:35:52.150Z,95051.50
2022-07-25T18:38:20.778Z,95013.31
2022-07-25T18:41:06.499Z,95058.69
2022-07-25T18:43:39.215Z,95068.38
2022-07-25T18:46:07.920Z,95052.53
2022-07-25T18:48:38.122Z,95063.59
2022-07-25T18:51:06.771Z,95062.47
2022-07-25T18:53:35.552Z,95062.50
2022-07-25T18:56:06.962Z,95067.53
2022-07-25T18:58:35.917Z,95070.28
2022-07-25T19:01:04.326Z,95071.84
2022-07-25T19:03:34.973Z,95073.72
2022-07-25T19:06:03.835Z,95068.69
2022-07-25T19:08:32.401Z,95075.66
2022-07-25T19:11:01.092Z,95084.31
2022-07-25T19:13:48.832Z,95089.06
2022-07-25T19:16:18.815Z,95080.41
2022-07-25T19:18:47.433Z,95100.09
2022-07-25T19:21:15.861Z,95099.34
2022-07-25T19:23:50.149Z,95098.78
2022-07-25T19:26:19.630Z,95103.25
2022-07-25T19:28:49.565Z,95107.22
2022-07-25T19:31:18.414Z,95097.78
2022-07-25T19:33:47.210Z,95110.59
2022-07-25T19:36:15.622Z,95119.13
2022-07-25T19:38:44.059Z,95117.00
2022-07-25T19:41:12.722Z,95119.69
2022-07-25T19:43:41.214Z,95116.22
2022-07-25T19:46:11.073Z,95126.19
2022-07-25T19:48:39.683Z,95123.69
2022-07-25T19:51:08.683Z,95130.47
2022-07-25T19:53:37.575Z,95099.56
2022-07-25T19:56:06.804Z,95134.88
2022-07-25T19:58:38.668Z,95121.94
2022-07-25T20:01:07.765Z,95100.66
2022-07-25T20:03:37.784Z,95126.97
2022-07-25T20:06:08.457Z,95132.06
2022-07-25T20:08:39.592Z,95128.66
2022-07-25T20:11:08.659Z,95125.53
2022-07-25T20:13:37.244Z,95100.56
2022-07-25T20:16:06.439Z,95110.75
2022-07-25T20:18:35.245Z,95136.91
2022-07-25T20:21:05.211Z,95138.84
2022-07-25T20:23:34.153Z,95071.66
2022-07-25T20:26:04.313Z,95144.06
2022-07-25T20:28:33.414Z,95149.91
2022-07-25T20:31:03.055Z,95149.22
2022-07-25T20:33:32.188Z,95150.41
2022-07-25T20:36:00.850Z,95154.19
2022-07-25T20:38:32.393Z,95150.34
2022-07-25T20:41:01.369Z,95150.69
2022-07-25T20:43:33.567Z,95141.13
2022-07-25T20:46:05.061Z,95143.78
2022-07-25T20:48:37.539Z,95150.81
2022-07-25T20:51:06.268Z,95148.78
2022-07-25T20:53:36.059Z,95154.63
2022-07-25T20:56:04.545Z,95153.31
2022-07-25T20:58:33.039Z,95147.63
2022-07-25T21:01:01.495Z,95152.50
2022-07-25T21:03:31.099Z,95168.41
2022-07-25T21:06:01.491Z,95081.44
2022-07-25T21:08:29.889Z,95123.28
2022-07-25T21:11:00.001Z,95142.19
2022-07-25T21:13:30.807Z,95169.81
2022-07-25T21:16:01.382Z,95159.19
2022-07-25T21:18:29.781Z,95141.16
2022-07-25T21:20:58.665Z,95169.34
2022-07-25T21:23:27.599Z,95157.47
2022-07-25T21:25:55.983Z,95165.50
2022-07-25T21:28:26.032Z,95174.78
2022-07-25T21:30:54.634Z,95157.94
2022-07-25T21:33:23.011Z,95174.63
2022-07-25T21:35:53.126Z,95174.69
2022-07-25T21:38:26.681Z,95181.56
2022-07-25T21:40:57.042Z,95139.97
2022-07-25T21:43:26.857Z,95179.09
2022-07-25T21:45:55.486Z,95018.03
2022-07-25T21:48:45.126Z,95186.09
2022-07-25T21:51:19.228Z,95177.91
2022-07-25T21:53:51.971Z,95154.31
2022-07-25T21:56:21.081Z,95188.97
2022-07-25T21:58:50.983Z,95193.91
2022-07-25T22:01:21.622Z,95192.38
2022-07-25T22:03:50.256Z,95043.22
2022-07-25T22:06:19.349Z,95089.34
2022-07-25T22:08:47.978Z,95040.56
2022-07-25T22:11:38.540Z,95094.91
2022-07-25T22:14:09.016Z,95189.44
2022-07-25T22:16:37.560Z,95187.81
2022-07-25T22:19:06.436Z,95065.03
2022-07-25T22:21:35.371Z,95175.84
2022-07-25T22:24:03.829Z,95161.25
2022-07-25T22:26:32.180Z,95008.31
2022-07-25T22:29:00.596Z,95180.81
2022-07-25T22:31:31.373Z,95071.00
2022-07-25T22:33:59.768Z,95025.09
2022-07-25T22:36:28.123Z,95140.47
2022-07-25T22:38:56.699Z,95106.13
2022-07-25T22:41:25.098Z,95182.69
2022-07-25T22:43:58.873Z,95179.75
2022-07-25T22:46:30.583Z,95178.41
2022-07-25T22:49:00.276Z,95176.53
2022-07-25T22:51:29.760Z,95022.41
2022-07-25T22:53:58.462Z,95027.63
2022-07-25T22:56:27.132Z,95169.59
2022-07-25T22:58:56.293Z,94986.09
2022-07-25T23:01:25.397Z,95031.78
2022-07-25T23:03:55.192Z,95176.50
2022-07-25T23:06:23.749Z,95119.00
2022-07-25T23:08:53.051Z,95155.25
2022-07-25T23:11:21.466Z,95169.50
2022-07-25T23:13:49.846Z,95062.03
2022-07-25T23:16:18.239Z,95076.63
2022-07-25T23:18:46.819Z,95158.81
2022-07-25T23:21:16.578Z,95162.97
2022-07-25T23:23:45.014Z,95122.19
2022-07-25T23:26:13.347Z,95166.53
2022-07-25T23:28:41.763Z,94983.19
2022-07-25T23:31:10.202Z,95006.13
2022-07-25T23:33:38.620Z,95140.34
2022-07-25T23:36:07.377Z,95149.06
2022-07-25T23:38:37.221Z,95161.34
2022-07-25T23:41:06.470Z,95156.88
2022-07-25T23:43:59.197Z,95142.56
2022-07-25T23:46:27.701Z,95157.28
2022-07-25T23:48:58.326Z,95160.31
2022-07-25T23:51:26.714Z,95155.34
2022-07-25T23:53:56.508Z,95123.25
2022-07-25T23:56:25.013Z,95112.44
2022-07-25T23:58:53.373Z,95152.78
